createdAt,value
2023-03-12T00:00:33.959Z,23.8798
2023-03-12T00:15:35.929Z,23.6427
2023-03-12T00:30:39.293Z,22.9698
2023-03-12T00:45:41.215Z,23.2267
2023-03-12T01:00:43.215Z,24.1596
2023-03-12T01:15:45.182Z,23.6297
2023-03-12T01:30:47.146Z,23.7467
2023-03-12T01:45:49.089Z,22.6516
2023-03-12T02:00:51.077Z,23.7046
2023-03-12T02:15:53.099Z,23.5554
2023-03-12T02:30:55.057Z,24.7
2023-03-12T02:45:57.059Z,25.8861
2023-03-12T03:00:59.092Z,25.714
2023-03-12T03:16:00.982Z,25.5549
2023-03-12T03:31:02.954Z,25.9641
2023-03-12T03:46:06.569Z,25.9542
2023-03-12T04:01:08.572Z,25.8731
2023-03-12T04:16:10.531Z,25.9053
2023-03-12T04:31:12.560Z,25.4144
2023-03-12T04:46:14.649Z,24.3744
2023-03-12T05:01:16.637Z,25.3884
2023-03-12T05:16:18.586Z,25.1346
2023-03-12T05:31:20.666Z,25.6125
2023-03-12T05:46:22.687Z,25.0826
2023-03-12T06:01:24.636Z,25.0535
2023-03-12T06:16:26.746Z,25.0826
2023-03-12T06:31:28.777Z,24.5304
2023-03-12T06:46:30.809Z,24.7873
2023-03-12T07:01:32.883Z,23.8383
2023-03-12T07:16:35.003Z,25.1414
2023-03-12T07:31:36.948Z,24.0234
2023-03-12T07:46:39.010Z,25.3915
2023-03-12T08:01:41.060Z,24.5985
2023-03-12T08:16:43.182Z,25.5995
2023-03-12T08:32:01.499Z,24.1373
2023-03-12T08:47:05.915Z,25.3494
2023-03-12T09:02:07.811Z,24.2704
2023-03-12T09:17:09.774Z,25.3686
2023-03-12T09:32:11.706Z,24.7285
2023-03-12T09:47:13.769Z,25.0764
2023-03-12T10:02:15.711Z,24.2865
2023-03-12T10:17:17.588Z,24.9823
2023-03-12T10:32:19.500Z,24.4295
2023-03-12T10:47:21.421Z,24.9724
2023-03-12T11:02:23.246Z,24.5824
2023-03-12T11:17:25.068Z,25.0114
2023-03-12T11:32:26.915Z,24.2766
2023-03-12T11:47:28.855Z,24.9823
2023-03-12T12:02:30.761Z,23.9293
2023-03-12T12:17:32.779Z,25.1965
2023-03-12T12:32:34.694Z,24.1955
2023-03-12T12:47:36.564Z,25.1544
2023-03-12T13:02:38.435Z,24.6177
2023-03-12T13:17:40.460Z,25.1934
2023-03-12T13:32:42.486Z,23.4904
2023-03-12T13:47:44.617Z,25.2906
2023-03-12T14:02:46.567Z,24.5886
2023-03-12T14:17:48.480Z,24.7774
2023-03-12T14:32:50.421Z,24.2673
2023-03-12T14:47:52.473Z,23.8903
2023-03-12T15:02:54.432Z,23.9132
2023-03-12T15:17:56.342Z,24.1794
2023-03-12T15:32:58.390Z,25.0405
2023-03-12T15:48:00.475Z,25.9282
2023-03-12T16:03:02.364Z,26.6203
2023-03-12T16:18:05.224Z,25.6911
2023-03-12T16:33:09.132Z,26.5163
2023-03-12T16:48:11.513Z,26.0972
2023-03-12T17:03:13.402Z,26.3411
2023-03-12T17:18:15.533Z,26.0582
2023-03-12T17:33:17.492Z,25.8372
2023-03-12T17:48:19.437Z,25.6843
2023-03-12T18:03:21.464Z,25.6484
2023-03-12T18:18:23.482Z,25.2714
2023-03-12T18:33:25.377Z,25.4045
2023-03-12T18:48:27.355Z,25.0993
2023-03-12T19:03:29.249Z,24.5304
2023-03-12T19:18:31.164Z,25.1024
2023-03-12T19:33:33.327Z,25.3463
2023-03-12T19:48:35.347Z,25.3203
2023-03-12T20:03:37.318Z,25.1903
2023-03-12T20:18:39.275Z,24.8944
2023-03-12T20:33:41.176Z,24.5533
2023-03-12T20:48:43.092Z,25.2033
2023-03-12T21:03:45.038Z,25.3265
2023-03-12T21:18:46.954Z,24.9563
2023-03-12T21:33:49.153Z,25.2163
2023-03-12T21:48:51.288Z,24.6703
2023-03-12T22:03:53.376Z,24.4592
2023-03-12T22:18:55.322Z,25.4243
2023-03-12T22:33:57.343Z,25.6713
2023-03-12T22:48:59.294Z,25.4503
2023-03-12T23:04:01.256Z,25.4144
2023-03-12T23:19:03.358Z,25.4175
2023-03-12T23:34:05.346Z,25.4336
2023-03-12T23:49:07.405Z,24.9755
